sensor_id;sensor_type;location;lat;lon;timestamp;temperature;humidity
37996;DHT22;23808;50.634;6.948;2022-09-09T00:04:02;18.10;99.90
37996;DHT22;23808;50.634;6.948;2022-09-09T00:08:03;18.00;99.90
37996;DHT22;23808;50.634;6.948;2022-09-09T00:12:11;18.00;99.90
37996;DHT22;23808;50.634;6.948;2022-09-09T00:24:34;17.90;99.90
37996;DHT22;23808;50.634;6.948;2022-09-09T00:28:48;17.80;99.90
37996;DHT22;23808;50.634;6.948;2022-09-09T00:32:55;17.80;99.90
37996;DHT22;23808;50.634;6.948;2022-09-09T00:36:58;17.70;99.90
37996;DHT22;23808;50.634;6.948;2022-09-09T00:41:11;17.70;99.90
37996;DHT22;23808;50.634;6.948;2022-09-09T00:50:15;17.60;99.90
37996;DHT22;23808;50.634;6.948;2022-09-09T00:58:05;17.50;99.90
37996;DHT22;23808;50.634;6.948;2022-09-09T01:02:27;17.50;99.90
37996;DHT22;23808;50.634;6.948;2022-09-09T01:06:36;17.50;99.90
37996;DHT22;23808;50.634;6.948;2022-09-09T01:14:48;17.50;99.90
37996;DHT22;23808;50.634;6.948;2022-09-09T01:18:53;17.50;99.90
37996;DHT22;23808;50.634;6.948;2022-09-09T01:27:01;17.50;99.90
37996;DHT22;23808;50.634;6.948;2022-09-09T01:31:03;17.50;99.90
37996;DHT22;23808;50.634;6.948;2022-09-09T01:35:04;17.50;99.90
37996;DHT22;23808;50.634;6.948;2022-09-09T01:39:06;17.50;99.90
37996;DHT22;23808;50.634;6.948;2022-09-09T01:43:06;17.50;99.90
37996;DHT22;23808;50.634;6.948;2022-09-09T01:47:07;17.50;99.90
37996;DHT22;23808;50.634;6.948;2022-09-09T01:51:08;17.50;99.90
37996;DHT22;23808;50.634;6.948;2022-09-09T01:55:10;17.50;99.90
37996;DHT22;23808;50.634;6.948;2022-09-09T02:03:23;17.40;99.90
37996;DHT22;23808;50.634;6.948;2022-09-09T02:11:26;17.40;99.90
37996;DHT22;23808;50.634;6.948;2022-09-09T02:15:32;17.40;99.90
37996;DHT22;23808;50.634;6.948;2022-09-09T02:19:37;17.40;99.90
37996;DHT22;23808;50.634;6.948;2022-09-09T02:23:39;17.40;99.90
37996;DHT22;23808;50.634;6.948;2022-09-09T02:27:41;17.50;99.90
37996;DHT22;23808;50.634;6.948;2022-09-09T02:31:44;17.50;99.90
37996;DHT22;23808;50.634;6.948;2022-09-09T02:35:45;17.50;99.90
37996;DHT22;23808;50.634;6.948;2022-09-09T02:39:47;17.50;99.90
37996;DHT22;23808;50.634;6.948;2022-09-09T02:43:47;17.50;99.90
37996;DHT22;23808;50.634;6.948;2022-09-09T02:51:51;17.60;99.90
37996;DHT22;23808;50.634;6.948;2022-09-09T02:55:55;17.60;99.90
37996;DHT22;23808;50.634;6.948;2022-09-09T02:59:57;17.60;99.90
37996;DHT22;23808;50.634;6.948;2022-09-09T03:03:58;17.70;99.90
37996;DHT22;23808;50.634;6.948;2022-09-09T03:07:59;17.70;99.90
37996;DHT22;23808;50.634;6.948;2022-09-09T03:12:00;17.70;99.90
37996;DHT22;23808;50.634;6.948;2022-09-09T03:16:00;17.70;99.90
37996;DHT22;23808;50.634;6.948;2022-09-09T03:20:02;17.70;99.90
37996;DHT22;23808;50.634;6.948;2022-09-09T03:24:03;17.70;99.90
37996;DHT22;23808;50.634;6.948;2022-09-09T03:28:03;17.70;99.90
37996;DHT22;23808;50.634;6.948;2022-09-09T03:32:04;17.60;99.90
37996;DHT22;23808;50.634;6.948;2022-09-09T03:36:04;17.60;99.90
37996;DHT22;23808;50.634;6.948;2022-09-09T03:40:05;17.60;99.90
37996;DHT22;23808;50.634;6.948;2022-09-09T03:44:06;17.60;99.90
37996;DHT22;23808;50.634;6.948;2022-09-09T03:48:07;17.70;99.90
37996;DHT22;23808;50.634;6.948;2022-09-09T03:52:08;17.60;99.90
37996;DHT22;23808;50.634;6.948;2022-09-09T03:56:08;17.70;99.90
37996;DHT22;23808;50.634;6.948;2022-09-09T04:00:09;17.70;99.90
37996;DHT22;23808;50.634;6.948;2022-09-09T04:04:10;17.70;99.90
37996;DHT22;23808;50.634;6.948;2022-09-09T04:08:12;17.70;99.90
37996;DHT22;23808;50.634;6.948;2022-09-09T04:12:12;17.70;99.90
37996;DHT22;23808;50.634;6.948;2022-09-09T04:16:13;17.70;99.90
37996;DHT22;23808;50.634;6.948;2022-09-09T04:20:14;17.80;99.90
37996;DHT22;23808;50.634;6.948;2022-09-09T04:24:15;17.70;99.90
37996;DHT22;23808;50.634;6.948;2022-09-09T04:28:17;17.80;99.90
37996;DHT22;23808;50.634;6.948;2022-09-09T04:32:17;17.70;99.90
37996;DHT22;23808;50.634;6.948;2022-09-09T04:36:18;17.70;99.90
37996;DHT22;23808;50.634;6.948;2022-09-09T04:40:19;17.60;99.90
37996;DHT22;23808;50.634;6.948;2022-09-09T04:44:20;17.50;99.90
37996;DHT22;23808;50.634;6.948;2022-09-09T04:48:20;17.50;99.90
37996;DHT22;23808;50.634;6.948;2022-09-09T04:52:21;17.50;99.90
37996;DHT22;23808;50.634;6.948;2022-09-09T04:56:21;17.50;99.90
37996;DHT22;23808;50.634;6.948;2022-09-09T05:00:22;17.50;99.90
37996;DHT22;23808;50.634;6.948;2022-09-09T05:04:23;17.50;99.90
37996;DHT22;23808;50.634;6.948;2022-09-09T05:08:23;17.50;99.90
37996;DHT22;23808;50.634;6.948;2022-09-09T05:12:24;17.50;99.90
37996;DHT22;23808;50.634;6.948;2022-09-09T05:16:25;17.50;99.90
37996;DHT22;23808;50.634;6.948;2022-09-09T05:20:26;17.50;99.90
37996;DHT22;23808;50.634;6.948;2022-09-09T05:24:27;17.50;99.90
37996;DHT22;23808;50.634;6.948;2022-09-09T05:28:28;17.50;99.90
37996;DHT22;23808;50.634;6.948;2022-09-09T05:32:29;17.60;99.90
37996;DHT22;23808;50.634;6.948;2022-09-09T05:36:32;17.60;99.90
37996;DHT22;23808;50.634;6.948;2022-09-09T05:40:32;17.60;99.90
37996;DHT22;23808;50.634;6.948;2022-09-09T05:44:33;17.60;99.90
37996;DHT22;23808;50.634;6.948;2022-09-09T05:48:34;17.60;99.90
37996;DHT22;23808;50.634;6.948;2022-09-09T05:52:35;17.70;99.90
37996;DHT22;23808;50.634;6.948;2022-09-09T05:56:36;17.70;99.90
37996;DHT22;23808;50.634;6.948;2022-09-09T06:00:36;17.80;99.90
37996;DHT22;23808;50.634;6.948;2022-09-09T06:04:38;17.90;99.90
37996;DHT22;23808;50.634;6.948;2022-09-09T06:08:39;18.00;99.90
37996;DHT22;23808;50.634;6.948;2022-09-09T06:12:40;18.20;99.90
37996;DHT22;23808;50.634;6.948;2022-09-09T06:16:40;18.30;99.90
37996;DHT22;23808;50.634;6.948;2022-09-09T06:20:57;18.50;99.90
37996;DHT22;23808;50.634;6.948;2022-09-09T06:24:58;18.60;99.90
37996;DHT22;23808;50.634;6.948;2022-09-09T06:28:58;18.60;99.90
37996;DHT22;23808;50.634;6.948;2022-09-09T06:32:59;18.60;99.90
37996;DHT22;23808;50.634;6.948;2022-09-09T06:37:00;18.60;99.90
37996;DHT22;23808;50.634;6.948;2022-09-09T06:41:00;18.60;99.90
37996;DHT22;23808;50.634;6.948;2022-09-09T06:45:02;18.70;99.90
37996;DHT22;23808;50.634;6.948;2022-09-09T06:49:02;18.70;99.90
37996;DHT22;23808;50.634;6.948;2022-09-09T06:53:03;18.80;99.90
37996;DHT22;23808;50.634;6.948;2022-09-09T06:57:03;18.90;99.90
37996;DHT22;23808;50.634;6.948;2022-09-09T07:01:04;19.00;99.90
37996;DHT22;23808;50.634;6.948;2022-09-09T07:05:05;19.10;99.90
37996;DHT22;23808;50.634;6.948;2022-09-09T07:09:08;19.20;99.90
37996;DHT22;23808;50.634;6.948;2022-09-09T07:13:08;19.40;99.90
37996;DHT22;23808;50.634;6.948;2022-09-09T07:17:10;19.50;99.90
37996;DHT22;23808;50.634;6.948;2022-09-09T07:21:11;19.80;99.90
37996;DHT22;23808;50.634;6.948;2022-09-09T07:25:15;20.00;99.30
37996;DHT22;23808;50.634;6.948;2022-09-09T07:29:18;20.20;99.10
37996;DHT22;23808;50.634;6.948;2022-09-09T07:33:18;20.50;98.40
37996;DHT22;23808;50.634;6.948;2022-09-09T07:37:20;20.90;97.90
37996;DHT22;23808;50.634;6.948;2022-09-09T07:41:22;21.20;97.60
37996;DHT22;23808;50.634;6.948;2022-09-09T07:45:22;21.40;96.90
37996;DHT22;23808;50.634;6.948;2022-09-09T07:49:23;21.60;96.90
37996;DHT22;23808;50.634;6.948;2022-09-09T07:53:24;21.90;96.30
37996;DHT22;23808;50.634;6.948;2022-09-09T07:57:24;21.80;94.80
37996;DHT22;23808;50.634;6.948;2022-09-09T08:01:26;21.30;94.40
37996;DHT22;23808;50.634;6.948;2022-09-09T08:05:27;20.90;95.30
37996;DHT22;23808;50.634;6.948;2022-09-09T08:09:27;20.90;95.50
37996;DHT22;23808;50.634;6.948;2022-09-09T08:13:33;21.30;95.20
37996;DHT22;23808;50.634;6.948;2022-09-09T08:17:33;21.70;94.50
37996;DHT22;23808;50.634;6.948;2022-09-09T08:21:35;22.00;94.00
37996;DHT22;23808;50.634;6.948;2022-09-09T08:25:36;22.30;93.30
37996;DHT22;23808;50.634;6.948;2022-09-09T08:29:37;22.20;93.00
37996;DHT22;23808;50.634;6.948;2022-09-09T08:33:38;21.90;92.90
37996;DHT22;23808;50.634;6.948;2022-09-09T08:37:39;21.70;93.00
37996;DHT22;23808;50.634;6.948;2022-09-09T08:45:57;22.20;92.60
37996;DHT22;23808;50.634;6.948;2022-09-09T08:54:03;22.90;90.90
37996;DHT22;23808;50.634;6.948;2022-09-09T08:58:08;22.70;90.80
37996;DHT22;23808;50.634;6.948;2022-09-09T09:02:15;22.30;90.90
37996;DHT22;23808;50.634;6.948;2022-09-09T09:10:21;21.90;90.90
37996;DHT22;23808;50.634;6.948;2022-09-09T09:14:26;22.10;90.20
37996;DHT22;23808;50.634;6.948;2022-09-09T09:18:27;22.50;89.60
37996;DHT22;23808;50.634;6.948;2022-09-09T09:26:37;22.60;88.50
37996;DHT22;23808;50.634;6.948;2022-09-09T09:30:39;22.70;88.30
37996;DHT22;23808;50.634;6.948;2022-09-09T09:34:41;22.60;88.20
37996;DHT22;23808;50.634;6.948;2022-09-09T09:38:52;23.30;88.20
37996;DHT22;23808;50.634;6.948;2022-09-09T09:42:54;24.20;85.70
37996;DHT22;23808;50.634;6.948;2022-09-09T09:51:27;24.80;83.10
37996;DHT22;23808;50.634;6.948;2022-09-09T09:55:28;24.80;84.10
37996;DHT22;23808;50.634;6.948;2022-09-09T09:59:35;25.40;81.40
37996;DHT22;23808;50.634;6.948;2022-09-09T10:03:36;25.40;80.50
37996;DHT22;23808;50.634;6.948;2022-09-09T10:07:39;25.70;78.80
37996;DHT22;23808;50.634;6.948;2022-09-09T10:16:03;27.20;77.20
37996;DHT22;23808;50.634;6.948;2022-09-09T10:32:28;24.80;78.50
37996;DHT22;23808;50.634;6.948;2022-09-09T10:36:31;24.50;79.00
37996;DHT22;23808;50.634;6.948;2022-09-09T10:57:14;24.40;80.00
37996;DHT22;23808;50.634;6.948;2022-09-09T11:01:28;24.50;79.00
37996;DHT22;23808;50.634;6.948;2022-09-09T11:05:43;24.50;77.80
37996;DHT22;23808;50.634;6.948;2022-09-09T11:09:47;24.90;79.00
37996;DHT22;23808;50.634;6.948;2022-09-09T11:18:16;25.80;77.50
37996;DHT22;23808;50.634;6.948;2022-09-09T11:22:24;25.50;76.80
37996;DHT22;23808;50.634;6.948;2022-09-09T11:26:29;25.00;77.00
37996;DHT22;23808;50.634;6.948;2022-09-09T11:38:50;25.80;75.60
37996;DHT22;23808;50.634;6.948;2022-09-09T11:43:02;26.00;75.30
37996;DHT22;23808;50.634;6.948;2022-09-09T11:47:15;26.60;74.50
37996;DHT22;23808;50.634;6.948;2022-09-09T11:59:53;27.00;70.80
37996;DHT22;23808;50.634;6.948;2022-09-09T12:04:10;26.60;70.20
37996;DHT22;23808;50.634;6.948;2022-09-09T12:08:16;25.80;72.20
37996;DHT22;23808;50.634;6.948;2022-09-09T12:12:21;25.30;73.70
37996;DHT22;23808;50.634;6.948;2022-09-09T12:20:34;25.10;74.70
37996;DHT22;23808;50.634;6.948;2022-09-09T12:24:49;25.10;74.40
37996;DHT22;23808;50.634;6.948;2022-09-09T12:28:54;24.80;73.80
37996;DHT22;23808;50.634;6.948;2022-09-09T12:33:01;24.50;74.40
37996;DHT22;23808;50.634;6.948;2022-09-09T12:37:44;24.40;75.30
37996;DHT22;23808;50.634;6.948;2022-09-09T12:41:26;24.30;75.40
37996;DHT22;23808;50.634;6.948;2022-09-09T12:45:30;23.90;75.50
37996;DHT22;23808;50.634;6.948;2022-09-09T12:49:35;23.50;76.80
37996;DHT22;23808;50.634;6.948;2022-09-09T12:53:36;23.50;77.80
37996;DHT22;23808;50.634;6.948;2022-09-09T12:57:38;23.50;77.40
37996;DHT22;23808;50.634;6.948;2022-09-09T13:01:39;23.50;77.50
37996;DHT22;23808;50.634;6.948;2022-09-09T13:05:40;23.30;78.00
37996;DHT22;23808;50.634;6.948;2022-09-09T13:09:40;23.00;78.80
37996;DHT22;23808;50.634;6.948;2022-09-09T13:13:41;22.70;81.10
37996;DHT22;23808;50.634;6.948;2022-09-09T13:17:48;22.60;83.20
37996;DHT22;23808;50.634;6.948;2022-09-09T13:21:49;22.90;82.80
37996;DHT22;23808;50.634;6.948;2022-09-09T13:25:54;23.90;81.30
37996;DHT22;23808;50.634;6.948;2022-09-09T13:29:55;24.60;79.80
37996;DHT22;23808;50.634;6.948;2022-09-09T13:33:56;24.80;78.90
37996;DHT22;23808;50.634;6.948;2022-09-09T13:37:58;24.70;78.90
37996;DHT22;23808;50.634;6.948;2022-09-09T13:41:59;24.50;79.30
37996;DHT22;23808;50.634;6.948;2022-09-09T13:46:22;24.10;80.10
37996;DHT22;23808;50.634;6.948;2022-09-09T13:50:26;23.90;80.20
37996;DHT22;23808;50.634;6.948;2022-09-09T13:54:27;23.90;81.20
37996;DHT22;23808;50.634;6.948;2022-09-09T13:58:27;23.80;80.70
37996;DHT22;23808;50.634;6.948;2022-09-09T14:02:28;23.60;81.10
37996;DHT22;23808;50.634;6.948;2022-09-09T14:06:29;23.70;81.30
37996;DHT22;23808;50.634;6.948;2022-09-09T14:10:29;24.30;81.30
37996;DHT22;23808;50.634;6.948;2022-09-09T14:14:30;25.00;79.80
37996;DHT22;23808;50.634;6.948;2022-09-09T14:18:31;25.30;79.20
37996;DHT22;23808;50.634;6.948;2022-09-09T14:22:33;24.90;79.40
37996;DHT22;23808;50.634;6.948;2022-09-09T14:26:34;24.30;80.30
37996;DHT22;23808;50.634;6.948;2022-09-09T14:30:37;23.70;81.80
37996;DHT22;23808;50.634;6.948;2022-09-09T14:34:38;23.30;83.20
37996;DHT22;23808;50.634;6.948;2022-09-09T14:38:39;23.40;84.50
37996;DHT22;23808;50.634;6.948;2022-09-09T14:42:42;23.80;83.60
37996;DHT22;23808;50.634;6.948;2022-09-09T14:46:43;24.10;83.60
37996;DHT22;23808;50.634;6.948;2022-09-09T14:50:43;24.30;82.10
37996;DHT22;23808;50.634;6.948;2022-09-09T14:54:44;24.30;82.30
37996;DHT22;23808;50.634;6.948;2022-09-09T14:58:44;24.70;82.50
37996;DHT22;23808;50.634;6.948;2022-09-09T15:02:46;24.80;81.60
37996;DHT22;23808;50.634;6.948;2022-09-09T15:06:46;24.70;82.40
37996;DHT22;23808;50.634;6.948;2022-09-09T15:10:48;24.60;81.30
37996;DHT22;23808;50.634;6.948;2022-09-09T15:14:50;24.20;82.30
37996;DHT22;23808;50.634;6.948;2022-09-09T15:19:00;23.60;83.30
37996;DHT22;23808;50.634;6.948;2022-09-09T15:23:05;23.20;84.90
37996;DHT22;23808;50.634;6.948;2022-09-09T15:27:09;22.80;85.20
37996;DHT22;23808;50.634;6.948;2022-09-09T15:31:13;22.40;89.60
37996;DHT22;23808;50.634;6.948;2022-09-09T15:35:14;21.80;91.20
37996;DHT22;23808;50.634;6.948;2022-09-09T15:39:24;21.70;91.90
37996;DHT22;23808;50.634;6.948;2022-09-09T15:43:25;21.80;92.00
37996;DHT22;23808;50.634;6.948;2022-09-09T15:47:25;21.90;91.90
37996;DHT22;23808;50.634;6.948;2022-09-09T15:51:27;22.00;91.60
37996;DHT22;23808;50.634;6.948;2022-09-09T15:55:28;22.00;90.90
37996;DHT22;23808;50.634;6.948;2022-09-09T15:59:47;21.90;91.10
37996;DHT22;23808;50.634;6.948;2022-09-09T16:03:48;21.80;90.80
37996;DHT22;23808;50.634;6.948;2022-09-09T16:07:51;21.70;90.70
37996;DHT22;23808;50.634;6.948;2022-09-09T16:11:52;21.80;90.70
37996;DHT22;23808;50.634;6.948;2022-09-09T16:15:54;21.80;90.80
37996;DHT22;23808;50.634;6.948;2022-09-09T16:19:55;21.90;90.60
37996;DHT22;23808;50.634;6.948;2022-09-09T16:23:58;21.80;90.80
37996;DHT22;23808;50.634;6.948;2022-09-09T16:28:02;21.70;90.80
37996;DHT22;23808;50.634;6.948;2022-09-09T16:32:03;21.60;91.40
37996;DHT22;23808;50.634;6.948;2022-09-09T16:36:07;21.40;92.30
37996;DHT22;23808;50.634;6.948;2022-09-09T16:40:08;21.20;92.90
37996;DHT22;23808;50.634;6.948;2022-09-09T16:44:10;21.00;93.60
37996;DHT22;23808;50.634;6.948;2022-09-09T16:48:11;20.80;94.10
37996;DHT22;23808;50.634;6.948;2022-09-09T16:52:11;20.70;94.50
37996;DHT22;23808;50.634;6.948;2022-09-09T16:56:17;20.50;94.90
37996;DHT22;23808;50.634;6.948;2022-09-09T17:00:18;20.30;95.00
37996;DHT22;23808;50.634;6.948;2022-09-09T17:04:20;20.20;95.30
37996;DHT22;23808;50.634;6.948;2022-09-09T17:08:21;20.10;95.30
37996;DHT22;23808;50.634;6.948;2022-09-09T17:12:23;20.00;95.20
37996;DHT22;23808;50.634;6.948;2022-09-09T17:16:24;19.90;95.60
37996;DHT22;23808;50.634;6.948;2022-09-09T17:20:27;19.90;96.10
37996;DHT22;23808;50.634;6.948;2022-09-09T17:24:29;19.80;96.60
37996;DHT22;23808;50.634;6.948;2022-09-09T17:28:29;19.70;96.60
37996;DHT22;23808;50.634;6.948;2022-09-09T17:32:31;19.60;96.80
37996;DHT22;23808;50.634;6.948;2022-09-09T17:36:32;19.50;97.10
37996;DHT22;23808;50.634;6.948;2022-09-09T17:40:33;19.40;97.30
37996;DHT22;23808;50.634;6.948;2022-09-09T17:44:34;19.30;97.20
37996;DHT22;23808;50.634;6.948;2022-09-09T17:48:35;19.20;97.20
37996;DHT22;23808;50.634;6.948;2022-09-09T17:52:36;19.20;97.30
37996;DHT22;23808;50.634;6.948;2022-09-09T17:56:38;19.10;97.50
37996;DHT22;23808;50.634;6.948;2022-09-09T18:00:38;19.00;97.60
37996;DHT22;23808;50.634;6.948;2022-09-09T18:04:41;18.90;97.80
37996;DHT22;23808;50.634;6.948;2022-09-09T18:08:42;18.90;98.10
37996;DHT22;23808;50.634;6.948;2022-09-09T18:12:42;18.80;98.30
37996;DHT22;23808;50.634;6.948;2022-09-09T18:16:43;18.70;98.60
37996;DHT22;23808;50.634;6.948;2022-09-09T18:20:44;18.70;98.90
37996;DHT22;23808;50.634;6.948;2022-09-09T18:24:44;18.60;99.30
37996;DHT22;23808;50.634;6.948;2022-09-09T18:28:48;18.50;99.70
37996;DHT22;23808;50.634;6.948;2022-09-09T18:32:49;18.50;99.90
37996;DHT22;23808;50.634;6.948;2022-09-09T18:36:52;18.40;99.90
37996;DHT22;23808;50.634;6.948;2022-09-09T18:40:54;18.40;99.90
37996;DHT22;23808;50.634;6.948;2022-09-09T18:44:54;18.30;99.90
37996;DHT22;23808;50.634;6.948;2022-09-09T18:48:55;18.30;99.90
37996;DHT22;23808;50.634;6.948;2022-09-09T18:52:56;18.30;99.90
37996;DHT22;23808;50.634;6.948;2022-09-09T18:56:56;18.30;99.90
37996;DHT22;23808;50.634;6.948;2022-09-09T19:01:00;18.30;99.90
37996;DHT22;23808;50.634;6.948;2022-09-09T19:05:00;18.40;99.90
37996;DHT22;23808;50.634;6.948;2022-09-09T19:09:02;18.40;99.90
37996;DHT22;23808;50.634;6.948;2022-09-09T19:13:03;18.50;99.90
37996;DHT22;23808;50.634;6.948;2022-09-09T19:17:04;18.60;99.90
37996;DHT22;23808;50.634;6.948;2022-09-09T19:21:08;18.60;99.90
37996;DHT22;23808;50.634;6.948;2022-09-09T19:25:09;18.50;99.90
37996;DHT22;23808;50.634;6.948;2022-09-09T19:29:11;18.50;99.90
37996;DHT22;23808;50.634;6.948;2022-09-09T19:33:14;18.40;99.90
37996;DHT22;23808;50.634;6.948;2022-09-09T19:37:14;18.30;99.90
37996;DHT22;23808;50.634;6.948;2022-09-09T19:41:16;18.20;99.90
37996;DHT22;23808;50.634;6.948;2022-09-09T19:45:20;18.10;99.90
37996;DHT22;23808;50.634;6.948;2022-09-09T19:49:21;18.00;99.90
37996;DHT22;23808;50.634;6.948;2022-09-09T19:53:21;18.00;99.90
37996;DHT22;23808;50.634;6.948;2022-09-09T19:57:22;18.00;99.90
37996;DHT22;23808;50.634;6.948;2022-09-09T20:01:24;18.00;99.90
37996;DHT22;23808;50.634;6.948;2022-09-09T20:05:24;17.90;99.90
37996;DHT22;23808;50.634;6.948;2022-09-09T20:09:25;17.90;99.90
37996;DHT22;23808;50.634;6.948;2022-09-09T20:13:28;17.90;99.90
37996;DHT22;23808;50.634;6.948;2022-09-09T20:17:29;17.90;99.90
37996;DHT22;23808;50.634;6.948;2022-09-09T20:21:33;17.90;99.90
37996;DHT22;23808;50.634;6.948;2022-09-09T20:25:35;17.90;99.90
37996;DHT22;23808;50.634;6.948;2022-09-09T20:29:35;17.90;99.90
37996;DHT22;23808;50.634;6.948;2022-09-09T20:33:36;18.00;99.90
37996;DHT22;23808;50.634;6.948;2022-09-09T20:37:38;18.00;99.90
37996;DHT22;23808;50.634;6.948;2022-09-09T20:41:39;18.10;99.90
37996;DHT22;23808;50.634;6.948;2022-09-09T20:45:40;18.10;99.90
37996;DHT22;23808;50.634;6.948;2022-09-09T20:49:43;18.10;99.90
37996;DHT22;23808;50.634;6.948;2022-09-09T20:54:05;18.10;99.90
37996;DHT22;23808;50.634;6.948;2022-09-09T20:58:04;18.10;99.90
37996;DHT22;23808;50.634;6.948;2022-09-09T21:02:05;18.10;99.90
37996;DHT22;23808;50.634;6.948;2022-09-09T21:06:07;18.20;99.90
37996;DHT22;23808;50.634;6.948;2022-09-09T21:10:07;18.20;99.90
37996;DHT22;23808;50.634;6.948;2022-09-09T21:14:08;18.20;99.90
37996;DHT22;23808;50.634;6.948;2022-09-09T21:18:09;18.20;99.90
37996;DHT22;23808;50.634;6.948;2022-09-09T21:22:10;18.20;99.90
37996;DHT22;23808;50.634;6.948;2022-09-09T21:26:13;18.20;99.90
37996;DHT22;23808;50.634;6.948;2022-09-09T21:30:13;18.20;99.90
37996;DHT22;23808;50.634;6.948;2022-09-09T21:34:14;18.10;99.90
37996;DHT22;23808;50.634;6.948;2022-09-09T21:38:19;18.10;99.90
37996;DHT22;23808;50.634;6.948;2022-09-09T21:42:20;18.00;99.90
37996;DHT22;23808;50.634;6.948;2022-09-09T21:46:20;18.00;99.90
37996;DHT22;23808;50.634;6.948;2022-09-09T21:50:22;17.90;99.90
37996;DHT22;23808;50.634;6.948;2022-09-09T21:54:23;17.80;99.90
37996;DHT22;23808;50.634;6.948;2022-09-09T21:58:23;17.70;99.90
37996;DHT22;23808;50.634;6.948;2022-09-09T22:02:23;17.60;99.90
37996;DHT22;23808;50.634;6.948;2022-09-09T22:06:27;17.60;99.90
37996;DHT22;23808;50.634;6.948;2022-09-09T22:10:27;17.50;99.90
37996;DHT22;23808;50.634;6.948;2022-09-09T22:14:28;17.50;99.90
37996;DHT22;23808;50.634;6.948;2022-09-09T22:18:28;17.40;99.90
37996;DHT22;23808;50.634;6.948;2022-09-09T22:22:31;17.40;99.90
37996;DHT22;23808;50.634;6.948;2022-09-09T22:26:33;17.30;99.90
37996;DHT22;23808;50.634;6.948;2022-09-09T22:30:34;17.30;99.90
37996;DHT22;23808;50.634;6.948;2022-09-09T22:34:35;17.30;99.90
37996;DHT22;23808;50.634;6.948;2022-09-09T22:38:35;17.20;99.90
37996;DHT22;23808;50.634;6.948;2022-09-09T22:42:36;17.20;99.90
37996;DHT22;23808;50.634;6.948;2022-09-09T22:46:36;17.20;99.90
37996;DHT22;23808;50.634;6.948;2022-09-09T22:50:38;17.10;99.90
37996;DHT22;23808;50.634;6.948;2022-09-09T22:54:40;17.10;99.90
37996;DHT22;23808;50.634;6.948;2022-09-09T22:58:42;17.10;99.90
37996;DHT22;23808;50.634;6.948;2022-09-09T23:02:42;17.10;99.90
37996;DHT22;23808;50.634;6.948;2022-09-09T23:06:43;17.10;99.90
37996;DHT22;23808;50.634;6.948;2022-09-09T23:10:44;17.00;99.90
37996;DHT22;23808;50.634;6.948;2022-09-09T23:14:44;17.00;99.90
37996;DHT22;23808;50.634;6.948;2022-09-09T23:18:45;17.00;99.90
37996;DHT22;23808;50.634;6.948;2022-09-09T23:22:46;17.00;99.90
37996;DHT22;23808;50.634;6.948;2022-09-09T23:26:46;16.90;99.90
37996;DHT22;23808;50.634;6.948;2022-09-09T23:30:47;16.90;99.90
37996;DHT22;23808;50.634;6.948;2022-09-09T23:34:47;16.90;99.90
37996;DHT22;23808;50.634;6.948;2022-09-09T23:38:48;16.90;99.90
37996;DHT22;23808;50.634;6.948;2022-09-09T23:42:48;16.80;99.90
37996;DHT22;23808;50.634;6.948;2022-09-09T23:46:49;16.80;99.90
37996;DHT22;23808;50.634;6.948;2022-09-09T23:50:50;16.70;99.90
37996;DHT22;23808;50.634;6.948;2022-09-09T23:54:50;16.70;99.90
37996;DHT22;23808;50.634;6.948;2022-09-09T23:58:51;16.70;99.90
